sensor_id;sensor_type;location;lat;lon;timestamp;pressure;altitude;pressure_sealevel;temperature;humidity
13434;BME280;6789;47.678;9.158;2022-07-06T00:16:05;97310.72;;;18.29;83.36
13434;BME280;6789;47.678;9.158;2022-07-06T00:27:22;97307.47;;;18.22;82.41
13434;BME280;6789;47.678;9.158;2022-07-06T00:38:13;97309.53;;;18.15;83.07
13434;BME280;6789;47.678;9.158;2022-07-06T00:43:24;97308.41;;;18.01;83.21
13434;BME280;6789;47.678;9.158;2022-07-06T00:48:48;97310.44;;;17.89;84.45
13434;BME280;6789;47.678;9.158;2022-07-06T01:05:11;97309.31;;;17.80;86.06
13434;BME280;6789;47.678;9.158;2022-07-06T01:10:27;97308.13;;;17.61;88.04
13434;BME280;6789;47.678;9.158;2022-07-06T01:15:42;97301.19;;;17.55;87.93
13434;BME280;6789;47.678;9.158;2022-07-06T01:21:23;97304.53;;;17.46;88.70
13434;BME280;6789;47.678;9.158;2022-07-06T01:31:58;97301.44;;;17.54;88.35
13434;BME280;6789;47.678;9.158;2022-07-06T01:36:50;97305.41;;;17.51;87.76
13434;BME280;6789;47.678;9.158;2022-07-06T01:41:42;97302.44;;;17.48;87.10
13434;BME280;6789;47.678;9.158;2022-07-06T01:46:59;97296.56;;;17.41;87.12
13434;BME280;6789;47.678;9.158;2022-07-06T01:51:51;97290.41;;;17.35;86.02
13434;BME280;6789;47.678;9.158;2022-07-06T01:56:58;97297.75;;;17.28;86.17
13434;BME280;6789;47.678;9.158;2022-07-06T02:17:00;97295.13;;;17.07;84.39
13434;BME280;6789;47.678;9.158;2022-07-06T02:22:12;97295.34;;;17.01;84.29
13434;BME280;6789;47.678;9.158;2022-07-06T02:27:03;97296.28;;;16.90;85.83
13434;BME280;6789;47.678;9.158;2022-07-06T02:31:59;97297.44;;;16.99;84.69
13434;BME280;6789;47.678;9.158;2022-07-06T02:36:51;97293.78;;;17.05;84.74
13434;BME280;6789;47.678;9.158;2022-07-06T02:41:43;97301.97;;;16.98;85.50
13434;BME280;6789;47.678;9.158;2022-07-06T02:46:35;97302.97;;;16.92;84.96
13434;BME280;6789;47.678;9.158;2022-07-06T02:51:27;97308.34;;;16.76;85.42
13434;BME280;6789;47.678;9.158;2022-07-06T03:01:22;97326.69;;;16.61;85.11
13434;BME280;6789;47.678;9.158;2022-07-06T03:06:14;97323.78;;;16.62;85.00
13434;BME280;6789;47.678;9.158;2022-07-06T03:17:27;97330.91;;;16.57;85.67
13434;BME280;6789;47.678;9.158;2022-07-06T03:22:19;97331.63;;;16.52;85.49
13434;BME280;6789;47.678;9.158;2022-07-06T03:27:11;97324.66;;;16.46;86.25
13434;BME280;6789;47.678;9.158;2022-07-06T03:32:36;97331.44;;;16.38;86.55
13434;BME280;6789;47.678;9.158;2022-07-06T03:37:27;97334.53;;;16.30;87.21
13434;BME280;6789;47.678;9.158;2022-07-06T03:47:47;97336.19;;;16.36;87.78
13434;BME280;6789;47.678;9.158;2022-07-06T03:52:38;97332.19;;;16.33;88.19
13434;BME280;6789;47.678;9.158;2022-07-06T03:57:31;97330.69;;;16.42;87.65
13434;BME280;6789;47.678;9.158;2022-07-06T04:02:38;97327.06;;;17.17;84.84
13434;BME280;6789;47.678;9.158;2022-07-06T04:08:41;97330.47;;;18.48;78.79
13434;BME280;6789;47.678;9.158;2022-07-06T04:15:22;97328.13;;;19.87;71.09
13434;BME280;6789;47.678;9.158;2022-07-06T05:17:22;97356.03;;;26.94;40.24
13434;BME280;6789;47.678;9.158;2022-07-06T06:48:16;97381.91;;;24.48;43.32
13434;BME280;6789;47.678;9.158;2022-07-06T06:53:32;97388.59;;;24.64;43.56
13434;BME280;6789;47.678;9.158;2022-07-06T06:58:53;97384.13;;;24.73;44.29
13434;BME280;6789;47.678;9.158;2022-07-06T07:04:09;97387.03;;;25.52;44.24
13434;BME280;6789;47.678;9.158;2022-07-06T07:10:27;97382.53;;;26.18;42.23
13434;BME280;6789;47.678;9.158;2022-07-06T07:15:34;97378.81;;;26.49;43.14
13434;BME280;6789;47.678;9.158;2022-07-06T09:33:21;97384.94;;;26.71;42.91
13434;BME280;6789;47.678;9.158;2022-07-06T10:52:23;97379.78;;;26.31;41.05
13434;BME280;6789;47.678;9.158;2022-07-06T10:58:07;97375.81;;;26.51;40.11
13434;BME280;6789;47.678;9.158;2022-07-06T23:22:05;97413.88;;;18.47;58.44
